Time,TemperatureF,DewpointF,PressureIn,WindDirection,WindDirectionDegrees,WindSpeedMPH,WindSpeedGustMPH,Humidity,HourlyPrecipIn,Conditions,Clouds,dailyrainin,SolarRadiationWatts/m^2,SoftwareType,DateUTC
2013-03-02 00:02:00,24.0,23.0,-100.00,NW,326,4.0,6.0,94,0.00,,,0.00,0.000000,,2013-03-02 05:02:00,
2013-03-02 00:32:00,24.0,23.0,-100.00,NW,313,3.0,7.0,94,0.00,,,0.00,0.000000,,2013-03-02 05:32:00,
2013-03-02 00:42:00,24.0,23.0,-100.00,NW,313,3.0,7.0,94,0.00,,,0.00,0.000000,,2013-03-02 05:42:00,
2013-03-02 00:52:00,24.0,23.0,-100.00,NW,313,3.0,7.0,94,0.00,,,0.00,0.000000,,2013-03-02 05:52:00,
2013-03-02 01:02:00,24.0,23.0,-100.00,NW,313,3.0,7.0,94,0.00,,,0.00,0.000000,,2013-03-02 06:02:00,
2013-03-02 01:32:00,24.0,23.0,-100.00,NW,311,3.0,6.0,94,0.00,,,0.00,0.000000,,2013-03-02 06:32:00,
2013-03-02 01:42:00,24.0,23.0,-100.00,NW,311,3.0,6.0,94,0.00,,,0.00,0.000000,,2013-03-02 06:42:00,
2013-03-02 01:52:00,24.0,23.0,-100.00,NW,311,3.0,6.0,94,0.00,,,0.00,0.000000,,2013-03-02 06:52:00,
2013-03-02 02:02:00,24.0,23.0,-100.00,NW,311,3.0,6.0,94,0.00,,,0.00,0.000000,,2013-03-02 07:02:00,
2013-03-02 02:32:00,24.0,23.0,-100.00,NW,310,3.0,6.0,94,0.00,,,0.00,0.000000,,2013-03-02 07:32:00,
2013-03-02 02:42:00,24.0,23.0,-100.00,NW,310,3.0,6.0,94,0.00,,,0.00,0.000000,,2013-03-02 07:42:00,
2013-03-02 02:52:00,24.0,23.0,-100.00,NW,310,3.0,6.0,94,0.00,,,0.00,0.000000,,2013-03-02 07:52:00,
2013-03-02 03:01:00,24.0,23.0,-100.00,NW,310,3.0,6.0,94,0.00,,,0.00,0.000000,,2013-03-02 08:01:00,
2013-03-02 03:32:00,24.0,22.0,-100.00,NW,304,3.0,8.0,93,0.00,,,0.00,0.000000,,2013-03-02 08:32:00,
2013-03-02 03:43:00,24.0,22.0,-100.00,NW,304,3.0,8.0,93,0.00,,,0.00,0.000000,,2013-03-02 08:43:00,
2013-03-02 03:52:00,24.0,22.0,-100.00,NW,304,3.0,8.0,93,0.00,,,0.00,0.000000,,2013-03-02 08:52:00,
2013-03-02 04:02:00,24.0,22.0,-100.00,NW,304,3.0,8.0,93,0.00,,,0.00,0.000000,,2013-03-02 09:02:00,
2013-03-02 04:32:00,24.0,22.0,-100.00,NW,306,3.0,11.0,93,0.00,,,0.00,0.000000,,2013-03-02 09:32:00,
2013-03-02 04:42:00,24.0,22.0,-100.00,NW,306,3.0,11.0,93,0.00,,,0.00,0.000000,,2013-03-02 09:42:00,
2013-03-02 04:52:00,24.0,22.0,-100.00,NW,306,3.0,11.0,93,0.00,,,0.00,0.000000,,2013-03-02 09:52:00,
2013-03-02 05:01:00,24.0,22.0,-100.00,NW,306,3.0,11.0,93,0.00,,,0.00,0.000000,,2013-03-02 10:01:00,
2013-03-02 05:32:00,23.0,21.0,-100.00,NW,312,3.0,6.0,93,0.00,,,0.00,0.000000,,2013-03-02 10:32:00,
2013-03-02 05:43:00,23.0,21.0,-100.00,NW,312,3.0,6.0,93,0.00,,,0.00,0.000000,,2013-03-02 10:43:00,
2013-03-02 05:52:00,23.0,21.0,-100.00,NW,312,3.0,6.0,93,0.00,,,0.00,0.000000,,2013-03-02 10:52:00,
2013-03-02 06:01:00,23.0,21.0,-100.00,NW,312,3.0,6.0,93,0.00,,,0.00,0.000000,,2013-03-02 11:01:00,
2013-03-02 06:32:00,23.0,21.0,-100.00,NW,307,3.0,6.0,93,0.00,,,0.00,0.000000,,2013-03-02 11:32:00,
2013-03-02 06:42:00,23.0,21.0,-100.00,NW,307,3.0,6.0,93,0.00,,,0.00,0.000000,,2013-03-02 11:42:00,
2013-03-02 06:52:00,23.0,21.0,-100.00,NW,307,3.0,6.0,93,0.00,,,0.00,0.000000,,2013-03-02 11:52:00,
2013-03-02 07:02:00,23.0,21.0,-100.00,NW,307,3.0,6.0,93,0.00,,,0.00,0.000000,,2013-03-02 12:02:00,
2013-03-02 07:33:00,23.0,21.0,-100.00,WNW,302,3.0,5.0,93,0.00,,,0.00,0.000000,,2013-03-02 12:33:00,
2013-03-02 07:43:00,23.0,21.0,-100.00,WNW,302,3.0,5.0,93,0.00,,,0.00,0.000000,,2013-03-02 12:43:00,
2013-03-02 07:53:00,23.0,21.0,-100.00,WNW,302,3.0,5.0,93,0.00,,,0.00,0.000000,,2013-03-02 12:53:00,
2013-03-02 08:01:00,23.0,21.0,-100.00,WNW,302,3.0,5.0,93,0.00,,,0.00,0.000000,,2013-03-02 13:01:00,
2013-03-02 08:32:00,24.0,22.0,-100.00,NW,312,3.0,7.0,92,0.00,,,0.00,4.000000,,2013-03-02 13:32:00,
2013-03-02 08:42:00,24.0,22.0,-100.00,NW,312,3.0,7.0,92,0.00,,,0.00,4.000000,,2013-03-02 13:42:00,
2013-03-02 08:52:00,24.0,22.0,-100.00,NW,312,3.0,7.0,92,0.00,,,0.00,4.000000,,2013-03-02 13:52:00,
2013-03-02 09:01:00,24.0,22.0,-100.00,NW,312,3.0,7.0,92,0.00,,,0.00,4.000000,,2013-03-02 14:01:00,
2013-03-02 09:32:00,25.0,23.0,-100.00,WNW,298,3.0,7.0,92,0.00,,,0.00,22.000000,,2013-03-02 14:32:00,
2013-03-02 09:42:00,25.0,23.0,-100.00,WNW,298,3.0,7.0,92,0.00,,,0.00,22.000000,,2013-03-02 14:42:00,
2013-03-02 09:52:00,25.0,23.0,-100.00,WNW,298,3.0,7.0,92,0.00,,,0.00,22.000000,,2013-03-02 14:52:00,
2013-03-02 10:02:00,25.0,23.0,-100.00,WNW,298,3.0,7.0,92,0.00,,,0.00,22.000000,,2013-03-02 15:02:00,
2013-03-02 10:32:00,26.0,24.0,-100.00,WNW,297,3.0,5.0,92,0.00,,,0.00,31.000000,,2013-03-02 15:32:00,
2013-03-02 10:42:00,26.0,24.0,-100.00,WNW,297,3.0,5.0,92,0.00,,,0.00,31.000000,,2013-03-02 15:42:00,
2013-03-02 10:52:00,26.0,24.0,-100.00,WNW,297,3.0,5.0,92,0.00,,,0.00,31.000000,,2013-03-02 15:52:00,
2013-03-02 11:02:00,26.0,24.0,-100.00,WNW,297,3.0,5.0,92,0.00,,,0.00,31.000000,,2013-03-02 16:02:00,
2013-03-02 11:32:00,32.0,29.0,-100.00,NW,310,3.0,8.0,89,0.00,,,0.00,101.000000,,2013-03-02 16:32:00,
2013-03-02 11:42:00,32.0,29.0,-100.00,NW,310,3.0,8.0,89,0.00,,,0.00,101.000000,,2013-03-02 16:42:00,
2013-03-02 11:52:00,32.0,29.0,-100.00,NW,310,3.0,8.0,89,0.00,,,0.00,101.000000,,2013-03-02 16:52:00,
2013-03-02 12:01:00,32.0,29.0,-100.00,NW,310,3.0,8.0,89,0.00,,,0.00,101.000000,,2013-03-02 17:01:00,
2013-03-02 12:32:00,31.0,26.0,-100.00,NNW,327,4.0,11.0,80,0.10,,,0.10,379.000000,,2013-03-02 17:32:00,
2013-03-02 12:42:00,31.0,26.0,-100.00,NNW,327,4.0,11.0,80,0.10,,,0.10,379.000000,,2013-03-02 17:42:00,
2013-03-02 12:52:00,31.0,26.0,-100.00,NNW,327,4.0,11.0,80,0.10,,,0.10,379.000000,,2013-03-02 17:52:00,
2013-03-02 13:02:00,31.0,26.0,-100.00,NNW,327,4.0,11.0,80,0.10,,,0.10,379.000000,,2013-03-02 18:02:00,
2013-03-02 13:32:00,31.0,25.0,-100.00,NNW,334,4.0,9.0,78,0.05,,,0.15,282.000000,,2013-03-02 18:32:00,
2013-03-02 13:42:00,31.0,25.0,-100.00,NNW,334,4.0,9.0,78,0.05,,,0.15,282.000000,,2013-03-02 18:42:00,
2013-03-02 13:52:00,31.0,25.0,-100.00,NNW,334,4.0,9.0,78,0.05,,,0.15,282.000000,,2013-03-02 18:52:00,
2013-03-02 14:02:00,31.0,25.0,-100.00,NNW,334,4.0,9.0,78,0.05,,,0.15,282.000000,,2013-03-02 19:02:00,
2013-03-02 14:32:00,29.0,24.0,-100.00,NNW,327,5.0,12.0,81,0.02,,,0.17,368.000000,,2013-03-02 19:32:00,
2013-03-02 14:43:00,29.0,24.0,-100.00,NNW,327,5.0,12.0,81,0.02,,,0.17,368.000000,,2013-03-02 19:43:00,
2013-03-02 14:52:00,29.0,24.0,-100.00,NNW,327,5.0,12.0,81,0.02,,,0.17,368.000000,,2013-03-02 19:52:00,
2013-03-02 15:01:00,29.0,24.0,-100.00,NNW,327,5.0,12.0,81,0.02,,,0.17,368.000000,,2013-03-02 20:01:00,
2013-03-02 15:32:00,29.0,20.0,-100.00,NNW,331,4.0,12.0,70,0.01,,,0.18,385.000000,,2013-03-02 20:32:00,
2013-03-02 15:42:00,29.0,20.0,-100.00,NNW,331,4.0,12.0,70,0.01,,,0.18,385.000000,,2013-03-02 20:42:00,
2013-03-02 15:53:00,29.0,20.0,-100.00,NNW,331,4.0,12.0,70,0.01,,,0.18,385.000000,,2013-03-02 20:53:00,
2013-03-02 16:02:00,29.0,20.0,-100.00,NNW,331,4.0,12.0,70,0.01,,,0.18,385.000000,,2013-03-02 21:02:00,
2013-03-02 16:32:00,27.0,21.0,-100.00,NW,323,6.0,11.0,79,0.00,,,0.18,184.000000,,2013-03-02 21:32:00,
2013-03-02 16:42:00,27.0,21.0,-100.00,NW,323,6.0,11.0,79,0.00,,,0.18,184.000000,,2013-03-02 21:42:00,
2013-03-02 16:52:00,27.0,21.0,-100.00,NW,323,6.0,11.0,79,0.00,,,0.18,184.000000,,2013-03-02 21:52:00,
2013-03-02 17:02:00,27.0,21.0,-100.00,NW,323,6.0,11.0,79,0.00,,,0.18,184.000000,,2013-03-02 22:02:00,
2013-03-02 17:32:00,26.0,20.0,-100.00,NW,310,5.0,11.0,78,0.00,,,0.18,173.000000,,2013-03-02 22:32:00,
2013-03-02 17:42:00,26.0,20.0,-100.00,NW,310,5.0,11.0,78,0.00,,,0.18,173.000000,,2013-03-02 22:42:00,
2013-03-02 17:52:00,26.0,20.0,-100.00,NW,310,5.0,11.0,78,0.00,,,0.18,173.000000,,2013-03-02 22:52:00,
2013-03-02 18:02:00,26.0,20.0,-100.00,NW,310,5.0,11.0,78,0.00,,,0.18,173.000000,,2013-03-02 23:02:00,
2013-03-02 18:32:00,24.0,20.0,-100.00,NW,307,5.0,12.0,84,0.00,,,0.18,74.000000,,2013-03-02 23:32:00,
2013-03-02 18:42:00,24.0,20.0,-100.00,NW,307,5.0,12.0,84,0.00,,,0.18,74.000000,,2013-03-02 23:42:00,
2013-03-02 18:52:00,24.0,20.0,-100.00,NW,307,5.0,12.0,84,0.00,,,0.18,74.000000,,2013-03-02 23:52:00,
2013-03-02 19:02:00,24.0,20.0,-100.00,NW,307,5.0,12.0,84,0.00,,,0.18,74.000000,,2013-03-03 00:02:00,
2013-03-02 19:32:00,22.0,20.0,-100.00,NW,312,6.0,12.0,90,0.00,,,0.18,3.000000,,2013-03-03 00:32:00,
2013-03-02 19:42:00,22.0,20.0,-100.00,NW,312,6.0,12.0,90,0.00,,,0.18,3.000000,,2013-03-03 00:42:00,
2013-03-02 19:52:00,22.0,20.0,-100.00,NW,312,6.0,12.0,90,0.00,,,0.18,3.000000,,2013-03-03 00:52:00,
2013-03-02 20:01:00,22.0,20.0,-100.00,NW,312,6.0,12.0,90,0.00,,,0.18,3.000000,,2013-03-03 01:01:00,
2013-03-02 20:32:00,21.0,19.0,-100.00,NW,317,7.0,12.0,92,0.00,,,0.18,0.000000,,2013-03-03 01:32:00,
2013-03-02 20:42:00,21.0,19.0,-100.00,NW,317,7.0,12.0,92,0.00,,,0.18,0.000000,,2013-03-03 01:42:00,
2013-03-02 20:52:00,21.0,19.0,-100.00,NW,317,7.0,12.0,92,0.00,,,0.18,0.000000,,2013-03-03 01:52:00,
2013-03-02 21:01:00,21.0,19.0,-100.00,NW,317,7.0,12.0,92,0.00,,,0.18,0.000000,,2013-03-03 02:01:00,
2013-03-02 21:32:00,20.0,18.0,-100.00,WNW,303,5.0,10.0,91,0.00,,,0.18,0.000000,,2013-03-03 02:32:00,
2013-03-02 21:42:00,20.0,18.0,-100.00,WNW,303,5.0,10.0,91,0.00,,,0.18,0.000000,,2013-03-03 02:42:00,
2013-03-02 21:52:00,20.0,18.0,-100.00,WNW,303,5.0,10.0,91,0.00,,,0.18,0.000000,,2013-03-03 02:52:00,
2013-03-02 22:02:00,20.0,18.0,-100.00,WNW,303,5.0,10.0,91,0.00,,,0.18,0.000000,,2013-03-03 03:02:00,
2013-03-02 22:32:00,18.0,15.0,-100.00,NW,317,5.0,11.0,89,0.00,,,0.18,0.000000,,2013-03-03 03:32:00,
2013-03-02 22:42:00,18.0,15.0,-100.00,NW,317,5.0,11.0,89,0.00,,,0.18,0.000000,,2013-03-03 03:42:00,
2013-03-02 22:52:00,18.0,15.0,-100.00,NW,317,5.0,11.0,89,0.00,,,0.18,0.000000,,2013-03-03 03:52:00,
2013-03-02 23:01:00,18.0,15.0,-100.00,NW,317,5.0,11.0,89,0.00,,,0.18,0.000000,,2013-03-03 04:01:00,
2013-03-02 23:32:00,18.0,16.0,-100.00,NW,316,6.0,10.0,90,0.00,,,0.18,0.000000,,2013-03-03 04:32:00,
2013-03-02 23:42:00,18.0,16.0,-100.00,NW,316,6.0,10.0,90,0.00,,,0.18,0.000000,,2013-03-03 04:42:00,
2013-03-02 23:52:00,18.0,16.0,-100.00,NW,316,6.0,10.0,90,0.00,,,0.18,0.000000,,2013-03-03 04:52:00,